createdAt,value
2022-08-30T00:01:52.027Z,72.16
2022-08-30T00:06:31.585Z,72.17
2022-08-30T00:18:18.886Z,72.85
2022-08-30T00:20:30.870Z,72.76
2022-08-30T00:22:49.937Z,72.78
2022-08-30T00:25:33.038Z,72.58
2022-08-30T00:27:54.316Z,72.50
2022-08-30T00:30:28.000Z,72.53
2022-08-30T00:40:54.656Z,72.91
2022-08-30T00:48:08.752Z,72.66
2022-08-30T00:50:23.615Z,72.74
2022-08-30T00:52:30.280Z,72.72
2022-08-30T00:54:36.727Z,72.22
2022-08-30T00:57:00.309Z,72.12
2022-08-30T00:59:21.731Z,72.34
2022-08-30T01:01:27.707Z,72.23
2022-08-30T01:03:51.763Z,72.51
2022-08-30T01:12:07.004Z,72.05
2022-08-30T01:14:18.172Z,71.99
2022-08-30T01:25:32.001Z,72.97
2022-08-30T01:27:43.835Z,73.45
2022-08-30T01:30:51.889Z,73.80
2022-08-30T01:33:38.781Z,73.16
2022-08-30T01:43:34.000Z,74.32
2022-08-30T01:45:38.683Z,74.07
2022-08-30T01:47:42.088Z,73.73
2022-08-30T01:52:15.909Z,72.77
2022-08-30T02:05:09.758Z,73.02
2022-08-30T02:07:17.000Z,72.93
2022-08-30T02:09:33.009Z,73.39
2022-08-30T02:11:36.829Z,73.62
2022-08-30T02:13:53.533Z,73.64
2022-08-30T02:19:16.055Z,74.02
2022-08-30T02:21:39.683Z,74.57
2022-08-30T02:26:56.403Z,74.35
2022-08-30T02:29:02.150Z,74.60
2022-08-30T02:31:37.922Z,75.10
2022-08-30T02:36:09.467Z,74.94
2022-08-30T02:38:20.296Z,75.20
2022-08-30T02:40:24.201Z,75.24
2022-08-30T02:42:37.568Z,75.30
2022-08-30T02:44:53.961Z,75.52
2022-08-30T02:46:57.662Z,74.97
2022-08-30T02:49:29.920Z,75.57
2022-08-30T02:51:26.756Z,75.61
2022-08-30T02:53:32.708Z,75.71
2022-08-30T02:55:47.245Z,75.58
2022-08-30T03:02:30.827Z,75.56
2022-08-30T03:04:35.030Z,75.57
2022-08-30T03:06:39.164Z,75.85
2022-08-30T03:29:10.226Z,76.32
2022-08-30T03:31:28.609Z,76.58
2022-08-30T03:33:57.866Z,76.67
2022-08-30T03:36:16.615Z,76.68
2022-08-30T03:38:50.956Z,76.83
2022-08-30T03:45:21.013Z,77.00
2022-08-30T03:59:23.169Z,77.69
2022-08-30T04:01:28.255Z,77.74
2022-08-30T04:03:45.620Z,77.93
2022-08-30T04:47:27.232Z,78.16
2022-08-30T04:49:45.295Z,77.37
2022-08-30T04:51:59.494Z,76.77
2022-08-30T04:58:34.248Z,75.31
2022-08-30T05:00:42.046Z,75.15
2022-08-30T05:02:48.033Z,75.05
2022-08-30T05:04:55.029Z,75.06
2022-08-30T05:06:58.973Z,75.02
2022-08-30T05:09:12.061Z,75.09
2022-08-30T05:12:00.752Z,74.52
2022-08-30T05:17:33.534Z,74.47
2022-08-30T06:30:20.020Z,75.88
2022-08-30T07:25:32.463Z,72.95
2022-08-30T07:28:52.334Z,72.98
2022-08-30T08:19:42.667Z,70.00
2022-08-30T09:08:58.524Z,63.14
2022-08-30T09:19:54.494Z,61.18
2022-08-30T09:22:46.687Z,62.12
2022-08-30T09:31:01.546Z,61.54
2022-08-30T10:03:56.127Z,57.73
2022-08-30T10:09:47.376Z,56.84
2022-08-30T10:40:51.771Z,54.51
2022-08-30T10:43:03.555Z,52.99
2022-08-30T10:45:24.656Z,53.32
2022-08-30T10:52:56.896Z,54.23
2022-08-30T10:55:23.051Z,52.64
2022-08-30T10:57:29.154Z,54.31
2022-08-30T11:04:47.623Z,51.09
2022-08-30T11:15:02.814Z,50.59
2022-08-30T11:17:51.383Z,49.75
2022-08-30T11:20:30.743Z,49.30
2022-08-30T11:23:19.384Z,47.86
2022-08-30T11:26:04.551Z,47.15
2022-08-30T11:28:10.055Z,46.91
2022-08-30T11:30:27.633Z,46.03
2022-08-30T11:33:00.200Z,46.23
2022-08-30T11:35:07.504Z,45.99
2022-08-30T11:37:50.539Z,46.21
2022-08-30T11:40:18.383Z,44.58
2022-08-30T11:47:26.117Z,45.47
2022-08-30T12:07:09.213Z,44.85
2022-08-30T12:09:28.063Z,44.81
2022-08-30T12:11:45.753Z,44.65
2022-08-30T12:14:13.259Z,44.66
2022-08-30T12:16:58.166Z,44.64
2022-08-30T12:19:39.080Z,44.45
2022-08-30T12:22:09.323Z,43.49
2022-08-30T12:24:28.066Z,42.57
2022-08-30T12:26:48.023Z,43.62
2022-08-30T12:29:26.168Z,43.06
2022-08-30T12:31:31.249Z,42.31
2022-08-30T12:33:44.220Z,42.44
2022-08-30T12:35:54.588Z,41.94
2022-08-30T12:38:09.842Z,42.45
2022-08-30T12:40:25.087Z,43.35
2022-08-30T12:42:40.076Z,44.89
2022-08-30T12:44:47.961Z,45.50
2022-08-30T12:47:06.931Z,46.13
2022-08-30T12:49:22.195Z,47.29
2022-08-30T12:51:41.110Z,47.95
2022-08-30T12:53:45.770Z,48.15
2022-08-30T12:56:08.834Z,48.64
2022-08-30T12:58:16.489Z,49.27
2022-08-30T13:00:39.410Z,50.11
2022-08-30T13:05:53.331Z,50.34
2022-08-30T13:08:11.707Z,50.12
2022-08-30T13:15:26.027Z,51.00
2022-08-30T13:17:30.475Z,50.68
2022-08-30T13:19:44.509Z,50.30
2022-08-30T13:21:54.873Z,50.35
2022-08-30T13:24:12.808Z,49.99
2022-08-30T13:26:23.163Z,50.23
2022-08-30T13:28:29.016Z,50.01
2022-08-30T13:30:35.477Z,49.27
2022-08-30T13:32:59.149Z,49.07
2022-08-30T13:35:29.868Z,48.88
2022-08-30T13:42:32.710Z,47.88
2022-08-30T13:44:41.506Z,48.11
2022-08-30T13:52:31.619Z,46.64
2022-08-30T13:54:56.116Z,46.85
2022-08-30T14:11:56.833Z,46.25
2022-08-30T14:18:38.195Z,45.52
2022-08-30T14:33:36.833Z,46.29
2022-08-30T14:40:53.582Z,46.36
2022-08-30T14:43:28.041Z,46.76
2022-08-30T15:08:26.923Z,47.73
2022-08-30T15:11:16.226Z,47.46
2022-08-30T15:16:42.297Z,49.74
2022-08-30T15:19:09.609Z,50.10
2022-08-30T15:21:19.272Z,50.71
2022-08-30T15:24:08.218Z,50.91
2022-08-30T15:35:30.790Z,52.72
2022-08-30T15:37:52.110Z,53.02
2022-08-30T15:40:07.334Z,52.93
2022-08-30T15:46:45.080Z,53.74
2022-08-30T15:49:22.896Z,53.83
2022-08-30T15:51:56.010Z,53.82
2022-08-30T15:54:21.028Z,53.48
2022-08-30T15:56:27.734Z,53.67
2022-08-30T15:58:31.142Z,52.70
2022-08-30T16:00:44.979Z,52.85
2022-08-30T16:03:41.075Z,53.58
2022-08-30T16:05:29.862Z,53.04
2022-08-30T16:07:36.316Z,52.45
2022-08-30T16:09:43.710Z,52.71
2022-08-30T16:11:46.897Z,52.74
2022-08-30T16:13:54.999Z,52.34
2022-08-30T16:16:02.848Z,52.66
2022-08-30T16:18:07.134Z,53.16
2022-08-30T16:20:16.081Z,53.46
2022-08-30T16:26:53.759Z,54.37
2022-08-30T16:29:00.225Z,54.20
2022-08-30T16:31:07.233Z,54.82
2022-08-30T16:33:14.051Z,55.11
2022-08-30T16:35:18.894Z,55.21
2022-08-30T16:37:22.193Z,55.32
2022-08-30T16:39:30.297Z,55.37
2022-08-30T16:41:37.170Z,55.65
2022-08-30T16:43:41.693Z,55.58
2022-08-30T16:45:50.190Z,55.80
2022-08-30T16:47:55.017Z,55.92
2022-08-30T16:54:38.001Z,56.97
2022-08-30T16:56:46.279Z,57.13
2022-08-30T16:59:07.044Z,57.64
2022-08-30T17:01:22.076Z,57.87
2022-08-30T17:04:19.392Z,58.12
2022-08-30T17:10:13.278Z,58.58
2022-08-30T17:23:19.431Z,59.99
2022-08-30T17:25:31.981Z,60.10
2022-08-30T17:27:43.415Z,60.40
2022-08-30T17:29:57.765Z,60.60
2022-08-30T17:32:25.847Z,60.77
2022-08-30T17:34:49.183Z,60.66
2022-08-30T17:36:56.888Z,60.65
2022-08-30T17:39:10.548Z,60.82
2022-08-30T17:41:26.092Z,60.94
2022-08-30T17:43:39.834Z,61.13
2022-08-30T17:45:49.165Z,61.32
2022-08-30T17:48:03.811Z,61.32
2022-08-30T19:17:31.814Z,67.46
2022-08-30T19:49:01.866Z,68.35
2022-08-30T19:51:30.549Z,68.86
2022-08-30T19:54:14.018Z,69.01
2022-08-30T20:05:01.138Z,70.08
2022-08-30T20:07:46.916Z,70.28
2022-08-30T20:21:55.827Z,71.06
2022-08-30T20:45:08.792Z,72.17
2022-08-30T20:57:54.947Z,72.50
2022-08-30T21:03:22.813Z,72.69
2022-08-30T21:05:35.020Z,72.73
2022-08-30T21:07:38.724Z,72.51
2022-08-30T21:09:42.025Z,72.42
2022-08-30T21:19:33.987Z,72.49
2022-08-30T21:21:38.001Z,72.76
2022-08-30T21:26:45.513Z,72.50
2022-08-30T21:33:06.949Z,72.16
2022-08-30T21:35:11.271Z,72.02
2022-08-30T21:37:14.440Z,72.09
2022-08-30T21:39:30.942Z,71.84
2022-08-30T21:46:14.067Z,72.11
2022-08-30T21:48:19.270Z,72.24
2022-08-30T21:50:25.988Z,72.29
2022-08-30T21:55:35.871Z,72.15
2022-08-30T21:57:39.558Z,72.00
2022-08-30T21:59:42.963Z,72.21
2022-08-30T22:01:48.566Z,72.20
2022-08-30T22:04:21.025Z,72.06
2022-08-30T22:06:41.025Z,72.23
2022-08-30T22:08:47.506Z,71.94
2022-08-30T22:10:54.382Z,72.38
2022-08-30T22:13:01.987Z,72.11
2022-08-30T22:15:19.834Z,71.94
2022-08-30T22:17:23.937Z,72.28
2022-08-30T22:19:27.328Z,72.39
2022-08-30T22:21:44.231Z,72.45
2022-08-30T22:23:49.361Z,72.55
2022-08-30T22:25:53.012Z,72.44
2022-08-30T22:27:57.782Z,72.26
2022-08-30T22:30:01.687Z,72.24
2022-08-30T22:32:05.225Z,72.31
2022-08-30T22:34:11.750Z,72.56
2022-08-30T22:36:36.394Z,72.36
2022-08-30T22:38:43.070Z,72.34
2022-08-30T22:40:51.038Z,72.32
2022-08-30T22:42:57.794Z,72.48
2022-08-30T22:45:03.029Z,72.64
2022-08-30T22:56:40.996Z,72.59
2022-08-30T23:02:16.128Z,72.83
2022-08-30T23:04:20.001Z,72.59
2022-08-30T23:06:25.982Z,72.83
2022-08-30T23:08:29.484Z,72.80
2022-08-30T23:10:41.982Z,72.68
2022-08-30T23:19:28.015Z,73.36
2022-08-30T23:21:32.126Z,73.17
2022-08-30T23:23:36.006Z,72.86
2022-08-30T23:25:40.679Z,72.95
2022-08-30T23:27:51.309Z,73.02
2022-08-30T23:30:29.525Z,72.97
2022-08-30T23:32:33.520Z,72.52
2022-08-30T23:34:37.226Z,72.87
2022-08-30T23:36:40.418Z,72.94
2022-08-30T23:38:44.740Z,72.65
2022-08-30T23:41:32.939Z,72.86
2022-08-30T23:48:53.503Z,73.68
2022-08-30T23:51:01.388Z,73.67
2022-08-30T23:53:12.166Z,73.71
2022-08-30T23:55:47.202Z,73.89
2022-08-30T23:57:53.557Z,74.04
2022-08-30T23:59:58.597Z,73.92
